createdAt,value
2023-04-18T00:02:23.973Z,8.75
2023-04-18T00:07:23.733Z,8.84
2023-04-18T00:12:23.698Z,8.86
2023-04-18T00:17:23.634Z,8.93
2023-04-18T00:22:23.603Z,8.94
2023-04-18T00:27:23.688Z,8.90
2023-04-18T00:32:23.472Z,8.96
2023-04-18T00:37:23.361Z,9.04
2023-04-18T00:42:23.283Z,8.96
2023-04-18T00:47:23.314Z,8.93
2023-04-18T00:52:23.227Z,8.86
2023-04-18T00:57:23.072Z,8.88
2023-04-18T01:02:23.240Z,8.96
2023-04-18T01:07:22.968Z,8.91
2023-04-18T01:12:22.859Z,8.91
2023-04-18T01:17:22.843Z,8.94
2023-04-18T01:22:22.763Z,8.86
2023-04-18T01:27:22.670Z,8.79
2023-04-18T01:32:22.625Z,8.81
2023-04-18T01:37:22.542Z,8.71
2023-04-18T01:42:22.638Z,8.68
2023-04-18T01:47:23.451Z,8.69
2023-04-18T01:52:22.366Z,8.73
2023-04-18T01:57:22.312Z,8.68
2023-04-18T02:02:22.319Z,8.62
2023-04-18T02:07:22.220Z,8.66
2023-04-18T02:12:22.092Z,8.62
2023-04-18T02:17:22.072Z,8.58
2023-04-18T02:22:21.976Z,8.47
2023-04-18T02:27:21.942Z,8.53
2023-04-18T02:32:22.032Z,8.60
2023-04-18T02:37:21.790Z,8.50
2023-04-18T02:42:21.716Z,8.42
2023-04-18T02:47:21.671Z,8.42
2023-04-18T02:52:21.557Z,8.37
2023-04-18T02:57:21.542Z,8.45
2023-04-18T03:02:21.583Z,8.44
2023-04-18T03:07:21.411Z,8.39
2023-04-18T03:12:21.315Z,8.35
2023-04-18T03:17:21.369Z,8.29
2023-04-18T03:22:21.166Z,8.30
2023-04-18T03:27:21.111Z,8.26
2023-04-18T03:32:21.074Z,8.17
2023-04-18T03:37:20.957Z,8.10
2023-04-18T03:42:20.896Z,8.07
2023-04-18T03:47:20.826Z,8.07
2023-04-18T03:52:20.785Z,8.03
2023-04-18T03:57:20.756Z,8.08
2023-04-18T04:02:20.786Z,8.07
2023-04-18T04:07:20.570Z,8.14
2023-04-18T04:12:21.220Z,8.14
2023-04-18T04:17:20.463Z,8.08
2023-04-18T04:22:20.381Z,7.90
2023-04-18T04:27:20.287Z,7.81
2023-04-18T04:32:20.336Z,7.74
2023-04-18T04:37:20.184Z,7.69
2023-04-18T04:42:20.133Z,7.60
2023-04-18T04:47:20.158Z,7.56
2023-04-18T04:52:19.960Z,7.58
2023-04-18T04:57:19.897Z,7.60
2023-04-18T05:02:19.968Z,7.49
2023-04-18T05:07:19.778Z,7.47
2023-04-18T05:12:19.717Z,7.42
2023-04-18T05:17:19.664Z,7.47
2023-04-18T05:22:19.599Z,7.42
2023-04-18T05:27:19.516Z,7.50
2023-04-18T05:32:19.510Z,7.49
2023-04-18T05:37:19.631Z,7.45
2023-04-18T05:42:19.341Z,7.50
2023-04-18T05:47:19.488Z,7.45
2023-04-18T05:52:19.248Z,7.47
2023-04-18T05:57:19.168Z,7.52
2023-04-18T06:02:19.184Z,7.59
2023-04-18T06:07:18.999Z,7.66
2023-04-18T06:12:18.955Z,7.58
2023-04-18T06:17:19.016Z,7.55
2023-04-18T06:22:18.834Z,7.55
2023-04-18T06:27:30.553Z,7.47
2023-04-18T06:32:19.774Z,7.52
2023-04-18T06:37:18.617Z,7.50
2023-04-18T06:42:20.265Z,7.63
2023-04-18T06:47:18.522Z,7.59
2023-04-18T06:52:18.410Z,7.63
2023-04-18T06:57:18.361Z,7.69
2023-04-18T07:02:18.357Z,7.58
2023-04-18T07:07:18.243Z,7.74
2023-04-18T07:12:18.186Z,7.75
2023-04-18T07:17:18.136Z,7.72
2023-04-18T07:22:18.101Z,7.81
2023-04-18T07:27:17.987Z,7.74
2023-04-18T07:32:17.897Z,7.84
2023-04-18T07:37:17.810Z,7.82
2023-04-18T07:42:17.776Z,7.78
2023-04-18T07:47:22.433Z,7.82
2023-04-18T07:52:17.592Z,7.78
2023-04-18T07:57:17.603Z,7.78
2023-04-18T08:02:17.564Z,7.82
2023-04-18T08:07:17.447Z,7.99
2023-04-18T08:12:17.341Z,8.22
2023-04-18T08:17:17.292Z,8.35
2023-04-18T08:22:17.497Z,8.21
2023-04-18T08:27:17.203Z,8.33
2023-04-18T08:32:17.091Z,8.65
2023-04-18T08:37:17.031Z,8.75
2023-04-18T08:42:16.990Z,9.01
2023-04-18T08:47:16.900Z,8.83
2023-04-18T08:52:16.883Z,8.96
2023-04-18T08:57:16.762Z,9.16
2023-04-18T09:02:16.747Z,9.12
2023-04-18T09:07:16.691Z,8.79
2023-04-18T09:12:16.703Z,9.23
2023-04-18T09:17:16.498Z,9.04
2023-04-18T09:22:16.420Z,8.90
2023-04-18T09:27:16.379Z,8.87
2023-04-18T09:32:16.285Z,8.73
2023-04-18T09:37:16.333Z,8.58
2023-04-18T09:42:16.242Z,8.72
2023-04-18T09:47:16.105Z,8.58
2023-04-18T09:52:16.096Z,8.66
2023-04-18T09:57:15.991Z,8.66
2023-04-18T10:02:15.933Z,8.63
2023-04-18T10:07:15.895Z,8.73
2023-04-18T10:12:15.817Z,8.57
2023-04-18T10:17:15.720Z,8.62
2023-04-18T10:22:15.753Z,8.71
2023-04-18T10:27:16.573Z,8.91
2023-04-18T10:32:15.547Z,8.84
2023-04-18T10:37:15.547Z,8.94
2023-04-18T10:42:15.463Z,8.81
2023-04-18T10:47:15.552Z,8.90
2023-04-18T10:52:15.740Z,8.91
2023-04-18T10:57:15.293Z,8.97
2023-04-18T11:02:15.273Z,8.97
2023-04-18T11:07:15.083Z,9.06
2023-04-18T11:12:15.003Z,9.09
2023-04-18T11:17:15.002Z,8.99
2023-04-18T11:22:14.907Z,9.12
2023-04-18T11:27:14.800Z,9.23
2023-04-18T11:32:14.862Z,9.31
2023-04-18T11:37:14.651Z,9.31
2023-04-18T11:42:15.850Z,9.38
2023-04-18T11:47:14.589Z,9.58
2023-04-18T11:52:14.473Z,9.56
2023-04-18T11:57:14.415Z,9.56
2023-04-18T12:02:16.870Z,9.63
2023-04-18T12:07:14.300Z,9.64
2023-04-18T12:12:14.216Z,9.61
2023-04-18T12:17:14.168Z,9.60
2023-04-18T12:22:14.074Z,9.61
2023-04-18T12:27:14.015Z,9.58
2023-04-18T12:32:13.921Z,9.63
2023-04-18T12:37:13.856Z,9.73
2023-04-18T12:42:13.856Z,9.71
2023-04-18T12:47:13.766Z,9.78
2023-04-18T12:52:13.819Z,9.75
2023-04-18T12:57:13.631Z,9.58
2023-04-18T13:02:13.565Z,9.63
2023-04-18T13:07:13.514Z,9.58
2023-04-18T13:12:13.397Z,9.53
2023-04-18T13:17:13.347Z,9.60
2023-04-18T13:22:13.337Z,9.71
2023-04-18T13:27:13.228Z,9.73
2023-04-18T13:32:13.231Z,9.83
2023-04-18T13:37:13.092Z,9.71
2023-04-18T13:42:15.461Z,9.68
2023-04-18T13:47:12.951Z,9.83
2023-04-18T13:52:12.869Z,9.85
2023-04-18T13:57:12.815Z,9.83
2023-04-18T14:02:12.836Z,9.82
2023-04-18T14:07:12.677Z,9.88
2023-04-18T14:12:12.770Z,10.03
2023-04-18T14:17:12.542Z,10.14
2023-04-18T14:22:12.473Z,10.10
2023-04-18T14:27:12.482Z,10.15
2023-04-18T14:32:12.319Z,10.14
2023-04-18T14:37:12.285Z,10.10
2023-04-18T14:42:12.223Z,10.22
2023-04-18T14:47:12.197Z,10.28
2023-04-18T14:52:12.091Z,10.28
2023-04-18T14:57:11.993Z,10.22
2023-04-18T15:02:12.042Z,10.21
2023-04-18T15:07:11.854Z,10.17
2023-04-18T15:12:11.777Z,10.19
2023-04-18T15:17:11.884Z,10.25
2023-04-18T15:22:11.659Z,10.22
2023-04-18T15:27:11.639Z,10.26
2023-04-18T15:32:11.572Z,10.18
2023-04-18T15:37:11.452Z,10.26
2023-04-18T15:42:11.493Z,10.28
2023-04-18T15:47:11.357Z,10.25
2023-04-18T15:52:11.272Z,10.25
2023-04-18T15:57:11.193Z,11.13
2023-04-18T16:02:11.164Z,12.11
2023-04-18T16:07:11.060Z,12.99
2023-04-18T16:12:11.038Z,13.30
2023-04-18T16:17:10.960Z,13.41
2023-04-18T16:22:10.860Z,12.82
2023-04-18T16:29:28.196Z,12.13
2023-04-18T16:34:28.186Z,11.38
2023-04-18T16:39:28.170Z,11.17
2023-04-18T16:44:28.035Z,11.13
2023-04-18T16:49:28.068Z,11.16
2023-04-18T16:54:27.873Z,10.94
2023-04-18T16:59:27.810Z,11.06
2023-04-18T17:04:27.745Z,10.89
2023-04-18T17:09:27.726Z,10.74
2023-04-18T17:14:27.608Z,10.88
2023-04-18T17:19:27.541Z,10.89
2023-04-18T17:24:27.624Z,10.76
2023-04-18T17:29:27.407Z,10.78
2023-04-18T17:34:27.357Z,10.55
2023-04-18T17:39:27.259Z,10.60
2023-04-18T17:44:27.182Z,10.51
2023-04-18T17:49:27.121Z,10.59
2023-04-18T17:54:27.058Z,10.65
2023-04-18T17:59:27.033Z,10.88
2023-04-18T18:04:27.075Z,10.99
2023-04-18T18:09:26.895Z,11.03
2023-04-18T18:14:26.820Z,10.92
2023-04-18T18:19:26.730Z,10.83
2023-04-18T18:24:26.650Z,10.76
2023-04-18T18:29:26.643Z,10.83
2023-04-18T18:34:26.547Z,10.91
2023-04-18T18:39:26.484Z,10.92
2023-04-18T18:44:26.416Z,11.06
2023-04-18T18:49:26.347Z,11.06
2023-04-18T18:54:26.563Z,10.99
2023-04-18T18:59:26.205Z,10.80
2023-04-18T19:04:26.304Z,10.66
2023-04-18T19:09:26.069Z,10.65
2023-04-18T19:14:26.049Z,10.66
2023-04-18T19:19:25.991Z,10.65
2023-04-18T19:24:25.881Z,10.59
2023-04-18T19:29:25.824Z,10.59
2023-04-18T19:34:25.733Z,10.66
2023-04-18T19:39:25.660Z,10.63
2023-04-18T19:44:25.592Z,10.58
2023-04-18T19:49:25.517Z,10.46
2023-04-18T19:54:25.458Z,10.46
2023-04-18T19:59:25.402Z,10.63
2023-04-18T20:04:25.591Z,10.58
2023-04-18T20:09:25.263Z,10.78
2023-04-18T20:14:25.299Z,10.77
2023-04-18T20:19:25.130Z,10.62
2023-04-18T20:24:25.066Z,10.59
2023-04-18T20:29:24.998Z,10.63
2023-04-18T20:34:24.933Z,10.74
2023-04-18T20:39:24.875Z,10.63
2023-04-18T20:44:24.934Z,10.77
2023-04-18T20:49:24.723Z,10.86
2023-04-18T20:54:24.675Z,10.78
2023-04-18T20:59:24.595Z,10.71
2023-04-18T21:04:24.634Z,10.66
2023-04-18T21:09:24.464Z,10.76
2023-04-18T21:14:24.404Z,10.88
2023-04-18T21:19:24.336Z,10.86
2023-04-18T21:24:24.302Z,10.74
2023-04-18T21:29:24.268Z,10.58
2023-04-18T21:34:24.208Z,10.60
2023-04-18T21:39:24.142Z,10.46
2023-04-18T21:44:24.040Z,10.40
2023-04-18T21:49:23.996Z,10.39
2023-04-18T21:54:23.912Z,10.56
2023-04-18T21:59:23.854Z,10.68
2023-04-18T22:04:23.905Z,10.63
2023-04-18T22:09:23.724Z,10.60
2023-04-18T22:14:23.643Z,10.56
2023-04-18T22:19:23.639Z,10.47
2023-04-18T22:24:23.507Z,10.44
2023-04-18T22:29:23.446Z,10.37
2023-04-18T22:34:23.399Z,10.32
2023-04-18T22:39:23.327Z,10.33
2023-04-18T22:44:23.242Z,10.26
2023-04-18T22:49:23.174Z,10.21
2023-04-18T22:54:23.109Z,10.18
2023-04-18T22:59:23.012Z,10.17
2023-04-18T23:04:23.066Z,10.12
2023-04-18T23:09:22.874Z,10.19
2023-04-18T23:14:22.828Z,10.25
2023-04-18T23:19:22.732Z,10.51
2023-04-18T23:24:22.678Z,10.39
2023-04-18T23:29:22.616Z,10.33
2023-04-18T23:34:22.527Z,10.33
2023-04-18T23:39:22.488Z,10.25
2023-04-18T23:44:22.436Z,10.18
2023-04-18T23:49:22.332Z,10.04
2023-04-18T23:54:22.281Z,10.06
2023-04-18T23:59:22.253Z,10.06
